createdAt,value
2022-09-14T00:10:05.539Z,86.94
2022-09-14T00:20:12.335Z,87.13
2022-09-14T00:30:18.152Z,87.40
2022-09-14T00:40:23.843Z,87.85
2022-09-14T00:50:29.641Z,88.58
2022-09-14T01:00:35.447Z,88.47
2022-09-14T01:10:54.199Z,87.99
2022-09-14T01:21:05.028Z,87.97
2022-09-14T01:31:18.484Z,87.95
2022-09-14T01:41:30.214Z,87.43
2022-09-14T01:51:40.325Z,87.50
2022-09-14T02:01:53.212Z,87.12
2022-09-14T02:12:00.906Z,87.20
2022-09-14T02:22:06.746Z,87.76
2022-09-14T02:32:22.337Z,88.77
2022-09-14T02:42:40.648Z,89.03
2022-09-14T02:52:53.523Z,89.28
2022-09-14T03:02:59.580Z,89.25
2022-09-14T03:13:05.846Z,89.21
2022-09-14T03:23:12.138Z,89.38
2022-09-14T03:33:17.987Z,89.52
2022-09-14T03:43:23.597Z,89.50
2022-09-14T03:53:29.266Z,89.81
2022-09-14T04:03:35.694Z,90.62
2022-09-14T04:13:41.908Z,90.41
2022-09-14T04:34:14.769Z,90.20
2022-09-14T04:44:20.577Z,90.46
2022-09-14T04:54:26.120Z,90.75
2022-09-14T05:04:31.862Z,90.88
2022-09-14T05:14:37.683Z,91.44
2022-09-14T05:24:43.381Z,91.46
2022-09-14T05:34:49.004Z,91.45
2022-09-14T05:44:54.721Z,91.16
2022-09-14T05:55:00.510Z,90.69
2022-09-14T06:05:06.826Z,89.45
2022-09-14T06:15:13.530Z,88.23
2022-09-14T06:25:19.125Z,87.17
2022-09-14T06:35:24.735Z,85.48
2022-09-14T06:45:31.223Z,83.89
2022-09-14T06:55:36.905Z,79.32
2022-09-14T07:05:42.571Z,77.74
2022-09-14T07:15:52.579Z,71.13
2022-09-14T07:26:05.187Z,65.21
2022-09-14T07:36:13.116Z,57.79
2022-09-14T07:46:19.130Z,48.87
2022-09-14T07:56:25.939Z,43.95
2022-09-14T08:06:32.105Z,40.84
2022-09-14T08:16:38.895Z,37.73
2022-09-14T08:26:44.759Z,35.05
2022-09-14T08:36:51.041Z,34.68
2022-09-14T08:47:02.943Z,35.23
2022-09-14T08:57:16.882Z,37.37
2022-09-14T09:07:32.754Z,40.43
2022-09-14T09:17:43.644Z,41.62
2022-09-14T09:27:49.450Z,42.58
2022-09-14T09:37:55.181Z,42.82
2022-09-14T09:48:09.511Z,43.90
2022-09-14T09:58:29.380Z,44.44
2022-09-14T10:08:40.755Z,44.42
2022-09-14T10:18:49.591Z,44.68
2022-09-14T10:28:55.818Z,45.58
2022-09-14T10:39:16.231Z,46.44
2022-09-14T10:49:38.008Z,46.95
2022-09-14T10:59:53.610Z,47.86
2022-09-14T11:10:06.715Z,48.44
2022-09-14T11:20:25.791Z,48.74
2022-09-14T11:30:39.732Z,48.97
2022-09-14T11:40:48.328Z,48.79
2022-09-14T11:51:01.134Z,49.03
2022-09-14T12:01:28.849Z,49.06
2022-09-14T12:11:37.152Z,49.58
2022-09-14T12:21:43.634Z,49.30
2022-09-14T12:32:23.249Z,48.82
2022-09-14T12:42:32.201Z,48.67
2022-09-14T12:52:46.064Z,48.55
2022-09-14T13:03:07.053Z,48.99
2022-09-14T13:13:26.938Z,48.99
2022-09-14T13:23:37.907Z,49.26
2022-09-14T13:33:50.015Z,49.99
2022-09-14T13:43:58.003Z,50.39
2022-09-14T13:54:17.511Z,50.74
2022-09-14T14:04:28.398Z,50.66
2022-09-14T14:14:34.204Z,50.48
2022-09-14T14:25:02.048Z,50.91
2022-09-14T14:35:15.660Z,51.22
2022-09-14T14:45:26.470Z,51.67
2022-09-14T14:55:33.167Z,51.79
2022-09-14T15:05:42.233Z,52.01
2022-09-14T15:15:48.034Z,52.69
2022-09-14T15:25:55.059Z,53.15
2022-09-14T15:36:01.270Z,53.39
2022-09-14T15:46:07.105Z,54.30
2022-09-14T15:56:14.308Z,55.16
2022-09-14T16:06:19.898Z,56.45
2022-09-14T16:16:26.042Z,57.58
2022-09-14T16:26:33.912Z,59.00
2022-09-14T16:36:41.780Z,60.05
2022-09-14T16:46:48.827Z,60.69
2022-09-14T16:56:57.078Z,61.93
2022-09-14T17:07:02.900Z,62.87
2022-09-14T17:17:08.975Z,63.64
2022-09-14T17:27:14.625Z,64.70
2022-09-14T17:37:20.325Z,65.82
2022-09-14T17:47:26.548Z,66.50
2022-09-14T17:57:32.141Z,67.39
2022-09-14T18:07:37.937Z,67.96
2022-09-14T18:17:44.994Z,68.67
2022-09-14T18:27:50.778Z,69.46
2022-09-14T18:37:56.991Z,70.36
2022-09-14T18:48:03.509Z,71.04
2022-09-14T18:58:09.549Z,71.73
2022-09-14T19:08:15.220Z,72.28
2022-09-14T19:18:21.031Z,72.93
2022-09-14T19:28:26.809Z,73.53
2022-09-14T19:38:32.831Z,74.21
2022-09-14T19:48:39.159Z,74.69
2022-09-14T19:58:46.868Z,75.27
2022-09-14T20:08:54.555Z,75.72
2022-09-14T20:19:06.082Z,76.06
2022-09-14T20:29:11.726Z,76.42
2022-09-14T20:39:17.846Z,76.84
2022-09-14T20:49:24.659Z,77.27
2022-09-14T20:59:30.622Z,77.69
2022-09-14T21:09:37.209Z,78.17
2022-09-14T21:19:43.001Z,78.30
2022-09-14T21:29:50.417Z,78.65
2022-09-14T21:39:57.774Z,79.03
2022-09-14T21:50:03.657Z,79.71
2022-09-14T22:00:12.553Z,80.16
2022-09-14T22:10:19.429Z,80.61
2022-09-14T22:20:25.172Z,81.00
2022-09-14T22:30:30.833Z,81.54
2022-09-14T22:40:36.664Z,81.91
2022-09-14T22:50:43.977Z,82.19
2022-09-14T23:00:50.055Z,82.65
2022-09-14T23:10:56.170Z,82.99
2022-09-14T23:21:05.437Z,83.27
2022-09-14T23:31:11.157Z,83.56
2022-09-14T23:41:16.952Z,83.82
2022-09-14T23:51:22.756Z,84.24
